createdAt,value
2018-05-16T00:01:56.504Z,42.03
2018-05-16T00:04:23.281Z,43.03
2018-05-16T00:06:50.129Z,45.20
2018-05-16T00:09:16.983Z,42.77
2018-05-16T00:11:43.072Z,42.57
2018-05-16T00:14:09.177Z,40.70
2018-05-16T00:16:35.267Z,42.70
2018-05-16T00:19:01.364Z,41.57
2018-05-16T00:21:29.698Z,45.30
2018-05-16T00:23:55.797Z,43.73
2018-05-16T00:26:21.892Z,41.43
2018-05-16T00:28:47.989Z,45.97
2018-05-16T00:31:14.081Z,42.80
2018-05-16T00:33:40.173Z,48.30
2018-05-16T00:36:07.018Z,46.80
2018-05-16T00:38:33.858Z,42.60
2018-05-16T00:40:59.953Z,41.03
2018-05-16T00:43:26.046Z,43.23
2018-05-16T00:45:52.197Z,45.10
2018-05-16T00:48:18.289Z,40.53
2018-05-16T00:51:03.025Z,36.23
2018-05-16T00:53:31.870Z,39.10
2018-05-16T00:55:57.964Z,38.87
2018-05-16T00:58:50.401Z,41.73
2018-05-16T01:01:17.246Z,41.67
2018-05-16T01:03:43.343Z,42.70
2018-05-16T01:06:09.448Z,49.43
2018-05-16T01:08:35.537Z,44.27
2018-05-16T01:11:01.641Z,46.60
2018-05-16T01:13:28.478Z,46.93
2018-05-16T01:15:55.325Z,47.13
2018-05-16T01:18:22.171Z,49.20
2018-05-16T01:20:49.022Z,48.80
2018-05-16T01:23:15.130Z,50.20
2018-05-16T01:25:41.977Z,44.40
2018-05-16T01:28:08.823Z,46.40
2018-05-16T01:30:35.670Z,42.80
2018-05-16T01:33:02.510Z,43.50
2018-05-16T01:35:29.355Z,41.77
2018-05-16T01:37:56.195Z,44.53
2018-05-16T01:40:23.045Z,41.17
2018-05-16T01:42:49.886Z,42.13
2018-05-16T01:45:16.733Z,47.37
2018-05-16T01:47:43.570Z,39.73
2018-05-16T01:50:10.426Z,42.73
2018-05-16T01:52:36.517Z,45.13
2018-05-16T01:55:02.605Z,41.50
2018-05-16T01:57:28.723Z,46.43
2018-05-16T01:59:54.821Z,47.67
2018-05-16T02:02:21.665Z,43.27
2018-05-16T02:04:48.501Z,48.10
2018-05-16T02:07:15.359Z,44.97
2018-05-16T02:09:41.450Z,46.27
2018-05-16T02:12:07.551Z,46.33
2018-05-16T02:14:33.641Z,47.77
2018-05-16T02:16:59.734Z,48.00
2018-05-16T02:19:25.826Z,51.27
2018-05-16T02:21:51.926Z,48.47
2018-05-16T02:24:18.028Z,48.00
2018-05-16T02:26:44.867Z,44.50
2018-05-16T02:29:11.703Z,42.87
2018-05-16T02:31:38.547Z,42.80
2018-05-16T02:34:05.428Z,42.47
2018-05-16T02:36:32.226Z,43.60
2018-05-16T02:38:58.334Z,43.87
2018-05-16T02:41:24.445Z,44.90
2018-05-16T02:43:50.545Z,41.50
2018-05-16T02:46:16.640Z,46.43
2018-05-16T02:48:43.487Z,42.37
2018-05-16T02:51:10.356Z,47.50
2018-05-16T02:53:36.463Z,47.97
2018-05-16T02:56:03.285Z,43.93
2018-05-16T02:58:30.140Z,43.63
2018-05-16T03:00:56.971Z,48.20
2018-05-16T03:03:23.061Z,45.63
2018-05-16T03:05:49.899Z,46.67
2018-05-16T03:08:15.994Z,50.57
2018-05-16T03:10:42.078Z,50.03
2018-05-16T03:13:08.178Z,41.67
2018-05-16T03:15:34.266Z,44.43
2018-05-16T03:18:00.353Z,47.83
2018-05-16T03:20:27.913Z,47.80
2018-05-16T03:22:54.011Z,46.40
2018-05-16T03:25:20.096Z,43.63
2018-05-16T03:27:46.924Z,44.47
2018-05-16T03:30:13.002Z,44.57
2018-05-16T03:32:39.102Z,44.43
2018-05-16T03:35:05.185Z,38.20
2018-05-16T03:37:31.274Z,50.50
2018-05-16T03:39:57.349Z,51.10
2018-05-16T03:42:23.436Z,54.03
2018-05-16T03:44:50.267Z,52.17
2018-05-16T03:47:16.990Z,70.33
2018-05-16T03:49:43.065Z,75.47
2018-05-16T03:52:10.629Z,57.50
2018-05-16T03:54:36.728Z,61.33
2018-05-16T03:57:02.817Z,72.27
2018-05-16T03:59:47.741Z,91.20
2018-05-16T04:02:32.497Z,81.13
2018-05-16T04:04:58.598Z,59.13
2018-05-16T04:07:24.697Z,67.97
2018-05-16T04:09:51.538Z,69.73
2018-05-16T04:12:18.373Z,60.23
2018-05-16T04:14:45.213Z,83.90
2018-05-16T04:17:12.057Z,65.70
2018-05-16T04:19:38.906Z,72.07
2018-05-16T04:22:05.002Z,67.67
2018-05-16T04:24:31.108Z,69.00
2018-05-16T04:26:57.207Z,67.73
2018-05-16T04:29:23.312Z,66.13
2018-05-16T04:31:50.154Z,74.17
2018-05-16T04:34:17.002Z,79.73
2018-05-16T04:36:44.502Z,76.60
2018-05-16T04:39:10.607Z,72.93
2018-05-16T04:41:36.705Z,67.70
2018-05-16T04:44:03.559Z,90.23
2018-05-16T04:46:29.657Z,92.77
2018-05-16T04:48:55.744Z,122.60
2018-05-16T04:51:21.851Z,86.07
2018-05-16T04:53:47.947Z,85.20
2018-05-16T04:56:15.390Z,75.27
2018-05-16T04:58:41.474Z,101.13
2018-05-16T05:01:07.561Z,108.17
2018-05-16T05:03:34.384Z,98.53
2018-05-16T05:06:00.477Z,74.93
2018-05-16T05:08:26.562Z,100.33
2018-05-16T05:10:52.653Z,67.77
2018-05-16T05:13:18.746Z,77.53
2018-05-16T05:15:44.832Z,82.93
2018-05-16T05:18:11.726Z,88.70
2018-05-16T05:20:38.498Z,70.17
2018-05-16T05:23:04.582Z,77.03
2018-05-16T05:25:30.668Z,102.20
2018-05-16T05:27:57.493Z,98.93
2018-05-16T05:30:23.587Z,82.87
2018-05-16T05:32:49.836Z,107.93
2018-05-16T05:35:16.606Z,158.03
2018-05-16T05:37:43.433Z,76.77
2018-05-16T05:40:09.545Z,118.93
2018-05-16T05:42:35.621Z,118.80
2018-05-16T05:45:01.697Z,105.40
2018-05-16T05:47:27.781Z,106.40
2018-05-16T05:49:53.869Z,86.90
2018-05-16T05:52:20.714Z,114.37
2018-05-16T05:54:47.531Z,158.00
2018-05-16T05:57:13.641Z,133.17
2018-05-16T05:59:39.743Z,132.93
2018-05-16T06:02:05.855Z,138.90
2018-05-16T06:04:31.937Z,151.70
2018-05-16T06:06:58.033Z,156.33
2018-05-16T06:09:24.127Z,101.47
2018-05-16T06:11:50.216Z,114.37
2018-05-16T06:14:16.302Z,107.97
2018-05-16T06:16:42.977Z,130.83
2018-05-16T06:19:09.069Z,132.93
2018-05-16T06:21:35.173Z,112.73
2018-05-16T06:24:01.276Z,118.13
2018-05-16T06:26:28.134Z,121.83
2018-05-16T06:28:54.961Z,97.50
2018-05-16T06:31:21.814Z,146.33
2018-05-16T06:33:48.645Z,112.47
2018-05-16T06:36:15.485Z,113.20
2018-05-16T06:38:41.577Z,136.90
2018-05-16T06:41:07.678Z,142.23
2018-05-16T06:43:33.786Z,103.63
2018-05-16T06:46:06.896Z,105.33
2018-05-16T06:48:32.999Z,99.07
2018-05-16T06:50:59.837Z,90.47
2018-05-16T06:53:26.681Z,103.33
2018-05-16T06:55:53.537Z,99.60
2018-05-16T06:58:19.633Z,81.13
2018-05-16T07:00:45.728Z,101.10
2018-05-16T07:03:11.835Z,77.57
2018-05-16T07:05:37.921Z,94.00
2018-05-16T07:08:04.770Z,103.93
2018-05-16T07:10:31.604Z,86.00
2018-05-16T07:12:58.438Z,69.80
2018-05-16T07:15:24.544Z,76.07
2018-05-16T07:17:50.656Z,82.80
2018-05-16T07:20:16.747Z,74.33
2018-05-16T07:22:42.851Z,75.87
2018-05-16T07:25:09.687Z,78.90
2018-05-16T07:27:35.780Z,99.17
2018-05-16T07:30:01.880Z,81.60
2018-05-16T07:32:28.023Z,101.00
2018-05-16T07:34:54.830Z,77.47
2018-05-16T07:37:20.937Z,86.73
2018-05-16T07:39:47.036Z,85.37
2018-05-16T07:42:13.135Z,80.53
2018-05-16T07:44:39.241Z,82.63
2018-05-16T07:47:05.417Z,83.47
2018-05-16T07:49:32.203Z,82.77
2018-05-16T07:51:58.301Z,91.50
2018-05-16T07:54:24.406Z,71.90
2018-05-16T07:56:51.254Z,73.60
2018-05-16T07:59:17.361Z,77.57
2018-05-16T08:01:43.457Z,65.77
2018-05-16T08:04:09.575Z,72.80
2018-05-16T08:06:35.668Z,65.47
2018-05-16T08:09:01.791Z,59.67
2018-05-16T08:11:27.889Z,73.33
2018-05-16T08:13:53.984Z,48.27
2018-05-16T08:16:20.086Z,35.33
2018-05-16T08:18:46.943Z,35.43
2018-05-16T08:21:13.108Z,37.43
2018-05-16T08:23:39.900Z,28.93
2018-05-16T08:26:06.744Z,31.43
2018-05-16T08:28:32.837Z,31.63
2018-05-16T08:30:58.946Z,29.50
2018-05-16T08:33:25.041Z,33.83
2018-05-16T08:35:51.153Z,33.00
2018-05-16T08:38:18.030Z,28.40
2018-05-16T08:40:44.133Z,29.43
2018-05-16T08:43:10.225Z,29.77
2018-05-16T08:45:36.321Z,32.13
2018-05-16T08:48:02.414Z,31.17
2018-05-16T08:50:28.514Z,30.87
2018-05-16T08:52:55.367Z,34.70
2018-05-16T08:55:22.213Z,33.47
2018-05-16T08:57:49.051Z,36.37
2018-05-16T09:00:15.894Z,31.90
2018-05-16T09:02:42.722Z,31.73
2018-05-16T09:05:08.818Z,33.10
2018-05-16T09:07:34.906Z,33.37
2018-05-16T09:10:00.999Z,34.57
2018-05-16T09:12:27.086Z,33.40
2018-05-16T09:14:53.181Z,35.97
2018-05-16T09:17:19.342Z,32.10
2018-05-16T09:19:45.373Z,33.73
2018-05-16T09:22:22.845Z,35.60
2018-05-16T09:24:48.946Z,34.90
2018-05-16T09:27:15.761Z,34.20
2018-05-16T09:29:41.867Z,35.03
2018-05-16T09:35:15.673Z,34.17
2018-05-16T09:37:41.767Z,34.57
2018-05-16T09:40:07.870Z,36.33
2018-05-16T09:42:33.949Z,36.43
2018-05-16T09:45:00.033Z,36.47
2018-05-16T09:47:26.884Z,33.47
2018-05-16T09:49:53.733Z,33.83
2018-05-16T09:52:19.821Z,35.37
2018-05-16T09:54:45.955Z,34.57
2018-05-16T09:57:12.069Z,34.10
2018-05-16T09:59:39.515Z,33.43
2018-05-16T10:02:05.631Z,33.60
2018-05-16T10:04:31.734Z,34.57
2018-05-16T10:06:57.834Z,34.17
2018-05-16T10:09:24.670Z,32.33
2018-05-16T10:11:51.530Z,33.33
2018-05-16T10:14:17.617Z,33.57
2018-05-16T10:16:43.732Z,32.43
2018-05-16T10:19:09.835Z,33.90
2018-05-16T10:21:35.937Z,33.97
2018-05-16T10:24:02.040Z,33.73
2018-05-16T10:26:28.135Z,38.57
2018-05-16T10:28:54.220Z,35.27
2018-05-16T10:31:20.331Z,34.50
2018-05-16T10:33:48.039Z,36.80
2018-05-16T10:36:14.138Z,34.50
2018-05-16T10:38:40.229Z,34.73
2018-05-16T10:41:06.317Z,34.83
2018-05-16T10:43:32.424Z,34.90
2018-05-16T10:45:58.528Z,34.90
2018-05-16T10:48:24.630Z,34.57
2018-05-16T10:50:50.738Z,34.80
2018-05-16T10:53:16.842Z,36.53
2018-05-16T10:55:42.952Z,34.75
2018-05-16T10:58:09.055Z,33.75
2018-05-16T11:00:35.878Z,33.00
2018-05-16T11:03:02.718Z,33.47
2018-05-16T11:05:29.777Z,33.85
2018-05-16T11:07:56.620Z,34.08
2018-05-16T11:10:23.469Z,34.63
2018-05-16T11:12:50.299Z,35.15
2018-05-16T11:15:17.131Z,34.75
2018-05-16T11:17:43.229Z,34.80
2018-05-16T11:20:09.305Z,34.53
2018-05-16T11:22:36.142Z,34.38
2018-05-16T11:25:02.978Z,36.38
2018-05-16T11:27:29.079Z,36.08
2018-05-16T11:29:55.169Z,35.25
2018-05-16T11:32:21.261Z,35.15
2018-05-16T11:34:48.090Z,34.78
2018-05-16T11:37:14.186Z,33.55
2018-05-16T11:39:40.269Z,33.75
2018-05-16T11:42:07.114Z,34.58
2018-05-16T11:44:33.205Z,32.63
2018-05-16T11:46:59.297Z,33.25
2018-05-16T11:49:25.386Z,32.58
2018-05-16T11:51:52.266Z,33.13
2018-05-16T11:54:18.344Z,31.23
2018-05-16T11:56:45.189Z,31.50
2018-05-16T11:59:12.039Z,31.65
2018-05-16T12:01:38.851Z,31.65
2018-05-16T12:04:04.929Z,33.17
2018-05-16T12:06:31.851Z,31.52
2018-05-16T12:08:58.693Z,31.15
2018-05-16T12:11:25.531Z,29.67
2018-05-16T12:13:52.378Z,29.50
2018-05-16T12:16:19.220Z,30.98
2018-05-16T12:18:46.062Z,27.85
2018-05-16T12:21:12.889Z,30.02
2018-05-16T12:23:38.978Z,31.33
2018-05-16T12:26:05.635Z,30.05
2018-05-16T12:28:31.735Z,30.50
2018-05-16T12:30:57.826Z,30.20
2018-05-16T12:33:24.660Z,29.58
2018-05-16T12:35:51.477Z,29.40
2018-05-16T12:38:17.570Z,26.62
2018-05-16T12:40:43.669Z,27.20
2018-05-16T12:43:15.807Z,28.17
2018-05-16T12:45:41.893Z,26.52
2018-05-16T12:48:08.001Z,27.42
2018-05-16T12:50:34.097Z,27.42
2018-05-16T12:53:00.922Z,27.75
2018-05-16T12:55:27.014Z,25.62
2018-05-16T12:58:26.782Z,26.08
2018-05-16T13:00:53.686Z,25.58
2018-05-16T13:03:19.820Z,25.15
2018-05-16T13:05:45.933Z,23.02
2018-05-16T13:08:12.036Z,24.83
2018-05-16T13:10:38.140Z,23.10
2018-05-16T13:13:04.995Z,24.30
2018-05-16T13:15:31.151Z,25.08
2018-05-16T13:17:57.306Z,23.38
2018-05-16T13:20:23.366Z,25.40
2018-05-16T13:22:50.232Z,27.13
2018-05-16T13:25:16.365Z,28.27
2018-05-16T13:27:42.454Z,27.17
2018-05-16T13:30:09.357Z,25.90
2018-05-16T13:32:35.464Z,26.15
2018-05-16T13:35:01.570Z,26.35
2018-05-16T13:37:27.686Z,27.17
2018-05-16T13:39:53.795Z,28.25
2018-05-16T13:42:20.638Z,27.95
2018-05-16T13:44:47.492Z,27.55
2018-05-16T13:47:15.119Z,26.40
2018-05-16T13:49:41.221Z,24.23
2018-05-16T13:52:07.338Z,23.55
2018-05-16T13:54:33.449Z,24.35
2018-05-16T13:56:59.538Z,23.83
2018-05-16T13:59:25.632Z,24.48
2018-05-16T14:01:51.720Z,25.23
2018-05-16T14:04:17.805Z,23.52
2018-05-16T14:06:43.907Z,23.42
2018-05-16T14:09:09.998Z,24.12
2018-05-16T14:11:36.091Z,23.62
2018-05-16T14:14:02.187Z,24.27
2018-05-16T14:16:28.283Z,25.85
2018-05-16T14:18:54.370Z,27.50
2018-05-16T14:21:20.461Z,27.13
2018-05-16T14:23:46.630Z,28.38
2018-05-16T14:26:12.654Z,28.02
2018-05-16T14:28:39.482Z,28.38
2018-05-16T14:31:05.572Z,28.38
2018-05-16T14:33:31.669Z,24.95
2018-05-16T14:35:57.758Z,26.45
2018-05-16T14:38:23.835Z,24.70
2018-05-16T14:40:49.930Z,24.83
2018-05-16T14:43:16.757Z,23.30
2018-05-16T14:45:43.599Z,22.15
2018-05-16T14:48:09.683Z,20.48
2018-05-16T14:50:35.809Z,21.30
2018-05-16T14:53:01.919Z,17.87
2018-05-16T14:55:28.068Z,14.87
2018-05-16T14:57:54.873Z,15.20
2018-05-16T15:00:20.969Z,12.75
2018-05-16T15:02:47.061Z,12.13
2018-05-16T15:05:13.161Z,9.13
2018-05-16T15:07:39.266Z,10.55
2018-05-16T15:10:05.366Z,7.12
2018-05-16T15:12:31.465Z,7.43
2018-05-16T15:14:57.557Z,6.45
2018-05-16T15:17:23.666Z,7.60
2018-05-16T15:19:50.509Z,8.35
2018-05-16T15:22:17.353Z,8.38
2018-05-16T15:24:44.189Z,9.20
2018-05-16T15:27:11.077Z,9.48
2018-05-16T15:29:37.173Z,8.98
2018-05-16T15:32:04.009Z,8.20
2018-05-16T15:34:30.857Z,9.20
2018-05-16T15:36:57.736Z,6.60
2018-05-16T15:39:24.690Z,6.93
2018-05-16T15:41:50.799Z,5.70
2018-05-16T15:44:16.897Z,5.80
2018-05-16T15:46:43.836Z,5.30
2018-05-16T15:49:09.894Z,6.47
2018-05-16T15:51:36.007Z,6.17
2018-05-16T15:54:02.115Z,4.90
2018-05-16T15:56:28.977Z,4.90
2018-05-16T15:58:55.082Z,5.27
2018-05-16T16:01:21.922Z,4.87
2018-05-16T16:03:48.769Z,5.40
2018-05-16T16:06:15.601Z,5.43
2018-05-16T16:08:41.697Z,5.80
2018-05-16T16:11:07.810Z,5.97
2018-05-16T16:13:33.921Z,5.60
2018-05-16T16:16:00.006Z,6.70
2018-05-16T16:18:26.107Z,6.03
2018-05-16T16:20:52.205Z,10.23
2018-05-16T16:23:18.305Z,9.93
2018-05-16T16:25:45.141Z,8.00
2018-05-16T16:28:11.981Z,6.00
2018-05-16T16:30:38.814Z,7.57
2018-05-16T16:33:04.923Z,9.03
2018-05-16T16:35:31.016Z,8.33
2018-05-16T16:37:57.116Z,7.47
2018-05-16T16:40:23.218Z,5.73
2018-05-16T16:42:49.329Z,5.87
2018-05-16T16:45:15.422Z,6.30
2018-05-16T16:47:41.530Z,5.50
2018-05-16T16:50:07.648Z,6.63
2018-05-16T16:52:33.742Z,6.00
2018-05-16T16:54:59.845Z,6.93
2018-05-16T16:57:26.545Z,7.43
2018-05-16T16:59:52.712Z,8.27
2018-05-16T17:02:18.770Z,8.47
2018-05-16T17:04:45.621Z,8.83
2018-05-16T17:07:12.465Z,9.67
2018-05-16T17:09:39.305Z,9.83
2018-05-16T17:12:06.152Z,9.13
2018-05-16T17:14:32.990Z,11.00
2018-05-16T17:16:59.841Z,10.70
2018-05-16T17:19:26.686Z,9.73
2018-05-16T17:21:52.786Z,9.77
2018-05-16T17:24:18.877Z,10.63
2018-05-16T17:26:45.004Z,11.00
2018-05-16T17:29:11.889Z,9.77
2018-05-16T17:31:38.742Z,11.93
2018-05-16T17:34:05.577Z,9.23
2018-05-16T17:36:32.423Z,10.17
2018-05-16T17:38:59.288Z,10.70
2018-05-16T17:41:25.385Z,9.50
2018-05-16T17:43:51.485Z,9.37
2018-05-16T17:46:17.569Z,8.97
2018-05-16T17:48:43.680Z,9.23
2018-05-16T17:51:10.509Z,9.10
2018-05-16T17:53:37.355Z,7.90
2018-05-16T17:56:03.449Z,8.53
2018-05-16T17:58:29.534Z,8.80
2018-05-16T18:00:55.679Z,9.07
2018-05-16T18:03:22.465Z,9.07
2018-05-16T18:05:48.563Z,9.60
2018-05-16T18:08:14.663Z,9.70
2018-05-16T18:10:40.779Z,12.73
2018-05-16T18:16:53.577Z,14.07
2018-05-16T18:19:19.681Z,10.70
2018-05-16T18:31:00.737Z,12.03
2018-05-16T18:33:26.835Z,12.50
2018-05-16T18:35:53.659Z,12.93
2018-05-16T18:38:27.472Z,12.33
2018-05-16T18:40:53.558Z,14.30
2018-05-16T18:43:20.382Z,14.53
2018-05-16T18:45:46.465Z,17.73
2018-05-16T18:48:12.550Z,17.17
2018-05-16T18:50:39.377Z,20.10
2018-05-16T18:53:05.456Z,17.03
2018-05-16T18:55:31.541Z,20.80
2018-05-16T18:57:57.633Z,22.87
2018-05-16T19:00:23.725Z,20.43
2018-05-16T19:02:49.839Z,22.63
2018-05-16T19:05:15.933Z,23.43
2018-05-16T19:07:42.038Z,28.73
2018-05-16T19:10:08.136Z,29.80
2018-05-16T19:12:34.235Z,33.37
2018-05-16T19:15:01.061Z,41.57
2018-05-16T19:17:27.207Z,41.07
2018-05-16T19:19:53.313Z,45.40
2018-05-16T19:22:19.409Z,44.10
2018-05-16T19:24:45.503Z,61.40
2018-05-16T19:27:12.224Z,59.37
2018-05-16T19:29:38.340Z,57.27
2018-05-16T19:32:05.190Z,60.07
2018-05-16T19:34:32.020Z,42.30
2018-05-16T19:36:58.127Z,40.70
2018-05-16T19:39:24.218Z,56.97
2018-05-16T19:41:50.322Z,43.80
2018-05-16T19:44:16.431Z,52.23
2018-05-16T19:46:42.543Z,59.73
2018-05-16T19:49:08.637Z,55.70
2018-05-16T19:51:34.728Z,61.00
2018-05-16T19:54:00.831Z,57.50
2018-05-16T19:56:27.674Z,55.40
2018-05-16T19:58:55.996Z,57.20
2018-05-16T20:01:22.088Z,53.93
2018-05-16T20:03:48.922Z,58.13
2018-05-16T20:06:15.761Z,59.87
2018-05-16T20:08:42.606Z,49.47
2018-05-16T20:11:09.430Z,49.97
2018-05-16T20:13:35.517Z,67.50
2018-05-16T20:16:01.596Z,57.37
2018-05-16T20:18:28.421Z,62.57
2018-05-16T20:20:54.507Z,64.30
2018-05-16T20:23:20.592Z,67.17
2018-05-16T20:25:47.413Z,65.17
2018-05-16T20:28:13.518Z,63.27
2018-05-16T20:30:39.615Z,62.77
2018-05-16T20:33:05.731Z,65.23
2018-05-16T20:35:31.809Z,57.77
2018-05-16T20:37:57.915Z,56.63
2018-05-16T20:40:23.994Z,49.07
2018-05-16T20:42:50.813Z,57.80
2018-05-16T20:45:16.905Z,54.50
2018-05-16T20:47:43.005Z,56.10
2018-05-16T20:50:09.090Z,80.70
2018-05-16T20:52:35.195Z,61.00
2018-05-16T20:55:01.286Z,72.40
2018-05-16T20:57:27.402Z,59.90
2018-05-16T20:59:53.497Z,76.57
2018-05-16T21:02:20.107Z,65.40
2018-05-16T21:04:46.215Z,65.13
2018-05-16T21:07:12.313Z,76.93
2018-05-16T21:09:38.414Z,58.07
2018-05-16T21:12:04.509Z,45.10
2018-05-16T21:14:30.620Z,46.67
2018-05-16T21:16:56.713Z,48.10
2018-05-16T21:19:23.570Z,51.37
2018-05-16T21:21:49.658Z,42.20
2018-05-16T21:24:15.762Z,42.73
2018-05-16T21:27:13.735Z,42.67
2018-05-16T21:29:39.870Z,41.57
2018-05-16T21:41:33.896Z,37.97
2018-05-16T21:44:00.051Z,40.90
2018-05-16T21:46:26.159Z,39.90
2018-05-16T21:49:26.686Z,39.17
2018-05-16T21:52:10.642Z,40.73
2018-05-16T21:54:59.249Z,37.47
2018-05-16T21:57:25.357Z,35.80
2018-05-16T21:59:52.209Z,39.43
2018-05-16T22:02:18.309Z,39.37
2018-05-16T22:04:44.411Z,38.23
2018-05-16T22:07:10.506Z,37.47
2018-05-16T22:09:54.186Z,40.53
2018-05-16T22:12:20.294Z,38.10
2018-05-16T22:14:46.407Z,40.37
2018-05-16T22:17:12.498Z,37.73
2018-05-16T22:19:38.619Z,36.40
2018-05-16T22:22:04.713Z,34.07
2018-05-16T22:24:30.823Z,34.40
2018-05-16T22:26:56.918Z,36.70
2018-05-16T22:29:23.030Z,36.63
2018-05-16T22:31:55.397Z,32.77
2018-05-16T22:34:28.297Z,36.40
2018-05-16T22:37:00.705Z,34.80
2018-05-16T22:39:32.868Z,34.53
2018-05-16T22:42:05.003Z,34.90
2018-05-16T22:44:44.555Z,34.07
2018-05-16T22:47:10.655Z,35.70
2018-05-16T22:49:37.501Z,34.43
2018-05-16T22:52:04.329Z,33.83
2018-05-16T22:54:31.175Z,32.43
2018-05-16T22:56:58.026Z,30.57
2018-05-16T22:59:24.895Z,34.97
2018-05-16T23:01:50.958Z,35.70
2018-05-16T23:04:17.028Z,36.20
2018-05-16T23:06:43.130Z,32.63
2018-05-16T23:09:09.219Z,34.47
2018-05-16T23:11:35.309Z,36.43
2018-05-16T23:14:01.386Z,37.47
2018-05-16T23:16:27.483Z,39.73
2018-05-16T23:18:53.566Z,39.77
2018-05-16T23:21:20.407Z,34.33
2018-05-16T23:23:47.230Z,36.13
2018-05-16T23:26:13.317Z,38.50
2018-05-16T23:28:39.401Z,38.43
2018-05-16T23:31:06.229Z,37.23
2018-05-16T23:33:32.304Z,39.23
2018-05-16T23:35:58.386Z,35.13
2018-05-16T23:38:24.483Z,38.53
2018-05-16T23:40:50.587Z,38.23
2018-05-16T23:43:16.678Z,37.40
2018-05-16T23:45:43.527Z,37.37
2018-05-16T23:48:10.357Z,35.40
2018-05-16T23:50:37.178Z,34.83
2018-05-16T23:53:03.269Z,39.83
2018-05-16T23:55:29.356Z,37.97
2018-05-16T23:57:55.441Z,38.60
